createdAt,value
2022-08-12T00:02:04.437Z,101429.53
2022-08-12T00:04:34.868Z,101426.16
2022-08-12T00:07:23.759Z,101430.22
2022-08-12T00:10:09.558Z,101431.69
2022-08-12T00:13:00.882Z,101424.59
2022-08-12T00:15:47.749Z,101421.03
2022-08-12T00:18:40.283Z,101419.88
2022-08-12T00:21:26.701Z,101424.56
2022-08-12T00:24:15.815Z,101429.13
2022-08-12T00:27:02.615Z,101417.72
2022-08-12T00:29:48.373Z,101427.47
2022-08-12T00:32:36.859Z,101420.81
2022-08-12T00:35:29.190Z,101419.63
2022-08-12T00:38:23.080Z,101425.94
2022-08-12T00:41:08.909Z,101419.41
2022-08-12T00:43:38.481Z,101417.44
2022-08-12T00:46:24.400Z,101424.69
2022-08-12T00:48:53.218Z,101425.59
2022-08-12T00:51:58.167Z,101423.41
2022-08-12T00:54:26.318Z,101418.66
2022-08-12T00:57:00.171Z,101415.91
2022-08-12T00:59:30.983Z,101418.44
2022-08-12T01:02:11.208Z,101415.81
2022-08-12T01:05:01.726Z,101419.03
2022-08-12T01:07:55.056Z,101425.03
2022-08-12T01:10:44.789Z,101422.16
2022-08-12T01:13:19.535Z,101420.06
2022-08-12T01:15:51.309Z,101420.88
2022-08-12T01:18:23.406Z,101421.44
2022-08-12T01:21:02.833Z,101417.81
2022-08-12T01:24:29.455Z,101419.22
2022-08-12T01:26:55.559Z,101413.78
2022-08-12T01:29:32.881Z,101416.13
2022-08-12T01:32:08.784Z,101416.91
2022-08-12T01:34:39.464Z,101415.03
2022-08-12T01:37:10.040Z,101412.38
2022-08-12T01:40:34.041Z,101413.94
2022-08-12T01:42:35.680Z,101406.84
2022-08-12T01:45:07.528Z,101407.31
2022-08-12T01:47:51.766Z,101412.09
2022-08-12T01:50:27.407Z,101418.00
2022-08-12T01:53:10.499Z,101405.78
2022-08-12T01:55:43.098Z,101410.00
2022-08-12T01:58:51.240Z,101405.56
2022-08-12T02:01:20.980Z,101405.16
2022-08-12T02:04:21.599Z,101402.34
2022-08-12T02:07:16.572Z,101407.16
2022-08-12T02:10:50.525Z,101406.16
2022-08-12T02:13:10.005Z,101414.50
2022-08-12T02:15:46.214Z,101427.63
2022-08-12T02:18:27.147Z,101419.06
2022-08-12T02:21:05.130Z,101417.84
2022-08-12T02:23:37.814Z,101414.84
2022-08-12T02:26:08.999Z,101413.94
2022-08-12T02:28:40.256Z,101410.19
2022-08-12T02:31:15.036Z,101413.41
2022-08-12T02:33:47.631Z,101416.75
2022-08-12T02:36:19.078Z,101413.84
2022-08-12T02:38:53.012Z,101414.50
2022-08-12T02:41:26.567Z,101415.50
2022-08-12T02:44:00.788Z,101421.41
2022-08-12T02:46:36.104Z,101422.19
2022-08-12T02:49:06.682Z,101414.22
2022-08-12T02:51:39.409Z,101417.31
2022-08-12T02:54:08.863Z,101415.22
2022-08-12T02:56:40.948Z,101412.56
2022-08-12T02:59:10.695Z,101408.88
2022-08-12T03:01:48.048Z,101402.19
2022-08-12T03:04:27.327Z,101414.09
2022-08-12T03:07:14.853Z,101415.63
2022-08-12T03:10:00.483Z,101393.22
2022-08-12T03:12:48.711Z,101415.78
2022-08-12T03:15:22.445Z,101410.09
2022-08-12T03:18:24.720Z,101410.97
2022-08-12T03:20:46.086Z,101419.78
2022-08-12T03:23:23.147Z,101396.53
2022-08-12T03:25:59.113Z,101417.53
2022-08-12T03:28:49.520Z,101406.63
2022-08-12T03:31:19.633Z,101413.09
2022-08-12T03:34:00.644Z,101413.28
2022-08-12T03:36:36.062Z,101414.75
2022-08-12T03:39:36.158Z,101415.84
2022-08-12T03:42:17.529Z,101410.84
2022-08-12T03:45:52.205Z,101413.75
2022-08-12T03:48:38.716Z,101405.63
2022-08-12T03:51:26.655Z,101406.44
2022-08-12T03:54:12.996Z,101409.88
2022-08-12T03:57:04.248Z,101406.44
2022-08-12T03:59:49.925Z,101400.13
2022-08-12T04:02:18.848Z,101406.06
2022-08-12T04:04:49.335Z,101412.53
2022-08-12T04:07:22.017Z,101399.44
2022-08-12T04:09:52.035Z,101412.97
2022-08-12T04:12:37.355Z,101409.63
2022-08-12T04:15:06.610Z,101406.44
2022-08-12T04:17:34.957Z,101398.88
2022-08-12T04:20:02.916Z,101403.88
2022-08-12T04:22:32.414Z,101406.63
2022-08-12T04:25:02.502Z,101411.75
2022-08-12T04:27:31.820Z,101410.53
2022-08-12T04:30:21.053Z,101412.09
2022-08-12T04:32:50.547Z,101408.31
2022-08-12T04:35:19.720Z,101385.44
2022-08-12T04:38:00.409Z,101396.75
2022-08-12T04:40:36.446Z,101404.41
2022-08-12T04:43:05.214Z,101409.88
2022-08-12T04:45:35.150Z,101405.22
2022-08-12T04:48:03.171Z,101408.72
2022-08-12T04:50:35.689Z,101404.78
2022-08-12T04:53:08.422Z,101410.53
2022-08-12T04:55:39.619Z,101416.97
2022-08-12T04:58:08.021Z,101418.06
2022-08-12T05:00:37.869Z,101404.63
2022-08-12T05:03:06.495Z,101403.41
2022-08-12T05:05:36.572Z,101405.53
2022-08-12T05:08:11.634Z,101410.63
2022-08-12T05:10:39.725Z,101409.19
2022-08-12T05:13:12.307Z,101402.66
2022-08-12T05:16:00.225Z,101410.63
2022-08-12T05:18:29.717Z,101407.31
2022-08-12T05:21:00.562Z,101413.41
2022-08-12T05:23:32.031Z,101414.19
2022-08-12T05:26:01.241Z,101417.25
2022-08-12T05:28:32.291Z,101412.22
2022-08-12T05:31:02.496Z,101401.31
2022-08-12T05:33:37.822Z,101414.50
2022-08-12T05:36:08.769Z,101392.09
2022-08-12T05:38:55.809Z,101415.91
2022-08-12T05:41:24.754Z,101414.88
2022-08-12T05:43:55.280Z,101414.00
2022-08-12T05:46:25.718Z,101418.75
2022-08-12T05:48:55.352Z,101417.59
2022-08-12T05:51:30.030Z,101415.41
2022-08-12T05:54:12.866Z,101418.56
2022-08-12T05:56:44.462Z,101421.00
2022-08-12T05:59:14.090Z,101421.59
2022-08-12T06:02:11.482Z,101401.25
2022-08-12T06:04:35.644Z,101432.59
2022-08-12T06:07:48.732Z,101420.06
2022-08-12T06:09:59.208Z,101432.97
2022-08-12T06:12:33.382Z,101438.03
2022-08-12T06:15:02.303Z,101433.56
2022-08-12T06:17:37.654Z,101424.06
2022-08-12T06:20:27.547Z,101426.94
2022-08-12T06:22:56.492Z,101434.34
2022-08-12T06:25:27.795Z,101417.91
2022-08-12T06:28:14.670Z,101434.94
2022-08-12T06:30:49.742Z,101434.16
2022-08-12T06:33:54.960Z,101447.56
2022-08-12T06:36:23.249Z,101444.66
2022-08-12T06:38:52.117Z,101445.56
2022-08-12T06:41:39.035Z,101445.34
2022-08-12T06:44:27.960Z,101437.91
2022-08-12T06:47:05.296Z,101447.66
2022-08-12T06:49:36.489Z,101447.56
2022-08-12T06:52:07.390Z,101442.44
2022-08-12T06:54:37.871Z,101448.19
2022-08-12T06:57:59.777Z,101443.06
2022-08-12T06:59:57.883Z,101441.03
2022-08-12T07:02:25.947Z,101443.13
2022-08-12T07:04:57.480Z,101427.44
2022-08-12T07:07:28.062Z,101436.88
2022-08-12T07:10:07.030Z,101436.31
2022-08-12T07:12:37.586Z,101431.81
2022-08-12T07:15:06.638Z,101429.66
2022-08-12T07:17:41.664Z,101441.97
2022-08-12T07:20:35.856Z,101439.09
2022-08-12T07:23:02.478Z,101439.44
2022-08-12T07:25:37.907Z,101444.75
2022-08-12T07:28:16.326Z,101453.84
2022-08-12T07:30:46.765Z,101447.25
2022-08-12T07:33:19.211Z,101449.28
2022-08-12T07:35:48.517Z,101454.91
2022-08-12T07:38:29.800Z,101443.91
2022-08-12T07:41:06.233Z,101451.91
2022-08-12T07:43:41.169Z,101459.69
2022-08-12T07:46:11.529Z,101460.44
2022-08-12T07:48:42.097Z,101461.63
2022-08-12T07:51:11.321Z,101461.13
2022-08-12T07:54:02.938Z,101459.44
2022-08-12T07:56:32.578Z,101460.41
2022-08-12T07:59:03.110Z,101459.94
2022-08-12T08:01:32.888Z,101455.44
2022-08-12T08:04:22.376Z,101461.94
2022-08-12T08:06:51.293Z,101460.47
2022-08-12T08:09:24.628Z,101455.88
2022-08-12T08:12:19.617Z,101455.25
2022-08-12T08:14:51.967Z,101447.88
2022-08-12T08:17:20.031Z,101457.97
2022-08-12T08:20:02.529Z,101452.16
2022-08-12T08:22:41.550Z,101451.78
2022-08-12T08:25:35.876Z,101452.34
2022-08-12T08:28:09.632Z,101454.16
2022-08-12T08:30:42.386Z,101454.03
2022-08-12T08:33:23.524Z,101451.16
2022-08-12T08:36:04.876Z,101449.09
2022-08-12T08:38:35.199Z,101450.34
2022-08-12T08:42:16.101Z,101436.47
2022-08-12T08:44:11.735Z,101449.06
2022-08-12T08:46:43.805Z,101443.47
2022-08-12T08:49:13.125Z,101446.38
2022-08-12T08:51:41.293Z,101445.09
2022-08-12T08:54:12.250Z,101446.31
2022-08-12T08:56:49.755Z,101447.56
2022-08-12T08:59:19.928Z,101439.25
2022-08-12T09:01:49.656Z,101451.19
2022-08-12T09:05:13.457Z,101441.75
2022-08-12T09:07:18.147Z,101439.72
2022-08-12T09:10:03.925Z,101432.69
2022-08-12T09:12:54.210Z,101441.75
2022-08-12T09:15:35.510Z,101439.53
2022-08-12T09:18:08.756Z,101435.41
2022-08-12T09:20:38.685Z,101430.66
2022-08-12T09:23:57.191Z,101437.97
2022-08-12T09:26:04.089Z,101427.47
2022-08-12T09:28:37.171Z,101427.34
2022-08-12T09:32:03.402Z,101424.19
2022-08-12T09:34:27.804Z,101425.63
2022-08-12T09:36:58.284Z,101420.53
2022-08-12T09:40:05.491Z,101421.75
2022-08-12T09:42:56.798Z,101424.41
2022-08-12T09:46:07.082Z,101419.09
2022-08-12T09:48:35.208Z,101403.78
2022-08-12T09:51:16.569Z,101416.16
2022-08-12T09:54:08.909Z,101407.03
2022-08-12T09:56:59.903Z,101408.25
2022-08-12T10:00:16.438Z,101395.13
2022-08-12T10:02:45.163Z,101401.44
2022-08-12T10:05:13.586Z,101396.66
2022-08-12T10:07:48.286Z,101392.78
2022-08-12T10:10:23.890Z,101382.59
2022-08-12T10:13:34.354Z,101380.06
2022-08-12T10:16:06.195Z,101371.41
2022-08-12T10:18:52.396Z,101376.22
2022-08-12T10:21:23.350Z,101381.63
2022-08-12T10:23:56.738Z,101376.06
2022-08-12T10:26:44.778Z,101348.88
2022-08-12T10:30:03.195Z,101361.66
2022-08-12T10:32:44.605Z,101361.97
2022-08-12T10:35:14.558Z,101373.59
2022-08-12T10:38:37.087Z,101353.84
2022-08-12T10:41:05.439Z,101359.38
2022-08-12T10:43:55.185Z,101362.56
2022-08-12T10:46:31.387Z,101350.25
2022-08-12T10:49:06.464Z,101350.38
2022-08-12T10:52:33.434Z,101341.81
2022-08-12T10:54:41.643Z,101335.47
2022-08-12T10:57:18.518Z,101342.66
2022-08-12T11:00:33.993Z,101338.50
2022-08-12T11:04:22.484Z,101326.09
2022-08-12T11:07:02.589Z,101340.22
2022-08-12T11:08:42.352Z,101325.28
2022-08-12T11:12:07.677Z,101336.69
2022-08-12T11:14:48.484Z,101327.88
2022-08-12T11:17:34.655Z,101335.56
2022-08-12T11:19:46.007Z,101328.28
2022-08-12T11:22:14.434Z,101336.19
2022-08-12T11:24:42.486Z,101339.47
2022-08-12T11:27:19.717Z,101322.63
2022-08-12T11:30:05.623Z,101322.00
2022-08-12T11:32:39.509Z,101316.41
2022-08-12T11:35:11.750Z,101313.81
2022-08-12T11:37:59.060Z,101311.19
2022-08-12T11:40:31.089Z,101313.31
2022-08-12T11:43:19.010Z,101311.50
2022-08-12T11:45:52.942Z,101319.84
2022-08-12T11:48:27.037Z,101314.09
2022-08-12T11:51:01.314Z,101303.38
2022-08-12T11:53:57.096Z,101301.91
2022-08-12T11:56:17.745Z,101305.53
2022-08-12T12:02:02.605Z,101305.91
2022-08-12T12:04:29.318Z,101293.91
2022-08-12T12:07:07.579Z,101287.25
2022-08-12T12:09:52.915Z,101284.19
2022-08-12T12:12:25.392Z,101288.22
2022-08-12T12:14:55.997Z,101282.81
2022-08-12T12:17:38.027Z,101287.53
2022-08-12T12:20:09.473Z,101279.75
2022-08-12T12:22:40.480Z,101279.84
2022-08-12T12:25:13.646Z,101286.03
2022-08-12T12:28:04.996Z,101289.63
2022-08-12T12:30:34.085Z,101277.25
2022-08-12T12:33:04.014Z,101287.94
2022-08-12T12:36:05.881Z,101298.66
2022-08-12T12:38:25.208Z,101270.69
2022-08-12T12:40:54.116Z,101287.22
2022-08-12T12:43:28.751Z,101276.47
2022-08-12T12:46:11.523Z,101273.72
2022-08-12T12:48:44.741Z,101271.03
2022-08-12T12:51:49.050Z,101259.47
2022-08-12T12:54:10.044Z,101278.13
2022-08-12T12:56:50.090Z,101278.94
2022-08-12T12:59:33.736Z,101263.34
2022-08-12T13:02:08.636Z,101263.66
2022-08-12T13:04:40.798Z,101258.69
2022-08-12T13:07:09.757Z,101266.47
2022-08-12T13:09:37.663Z,101258.84
2022-08-12T13:12:10.880Z,101260.59
2022-08-12T13:14:39.582Z,101264.56
2022-08-12T13:17:14.513Z,101258.47
2022-08-12T13:19:50.101Z,101254.97
2022-08-12T13:22:21.396Z,101251.69
2022-08-12T13:24:55.817Z,101248.31
2022-08-12T13:27:34.725Z,101251.97
2022-08-12T13:30:11.663Z,101255.53
2022-08-12T13:32:41.686Z,101258.47
2022-08-12T13:35:19.951Z,101254.09
2022-08-12T13:38:02.479Z,101246.97
2022-08-12T13:40:33.540Z,101239.56
2022-08-12T13:43:05.489Z,101240.56
2022-08-12T13:45:34.972Z,101241.22
2022-08-12T13:48:05.140Z,101244.03
2022-08-12T13:50:37.511Z,101233.34
2022-08-12T13:53:23.925Z,101237.47
2022-08-12T13:55:59.647Z,101223.69
2022-08-12T13:58:37.354Z,101218.03
2022-08-12T14:01:06.115Z,101213.94
2022-08-12T14:03:51.078Z,101215.94
2022-08-12T14:06:25.981Z,101216.16
2022-08-12T14:09:00.488Z,101211.19
2022-08-12T14:11:51.330Z,101207.78
2022-08-12T14:14:31.704Z,101213.72
2022-08-12T14:17:10.925Z,101200.38
2022-08-12T14:20:00.484Z,101207.38
2022-08-12T14:22:33.723Z,101201.75
2022-08-12T14:25:02.743Z,101208.91
2022-08-12T14:28:04.120Z,101205.31
2022-08-12T14:30:28.803Z,101200.34
2022-08-12T14:32:57.886Z,101193.91
2022-08-12T14:35:26.135Z,101199.31
2022-08-12T14:37:59.133Z,101199.06
2022-08-12T14:40:31.119Z,101204.97
2022-08-12T14:42:59.953Z,101191.06
2022-08-12T14:45:45.054Z,101188.75
2022-08-12T14:48:19.610Z,101196.09
2022-08-12T14:52:10.527Z,101202.84
2022-08-12T14:55:10.857Z,101195.91
2022-08-12T14:57:05.614Z,101187.22
2022-08-12T14:59:57.131Z,101179.34
2022-08-12T15:02:29.624Z,101179.34
2022-08-12T15:05:03.495Z,101182.06
2022-08-12T15:07:33.728Z,101183.03
2022-08-12T15:10:31.237Z,101179.53
2022-08-12T15:13:07.371Z,101174.22
2022-08-12T15:15:44.195Z,101181.97
2022-08-12T15:18:20.879Z,101177.88
2022-08-12T15:21:11.457Z,101165.84
2022-08-12T15:23:55.020Z,101167.97
2022-08-12T15:26:37.772Z,101180.38
2022-08-12T15:29:08.277Z,101181.09
2022-08-12T15:32:01.894Z,101181.97
2022-08-12T15:34:34.552Z,101170.69
2022-08-12T15:37:09.211Z,101164.59
2022-08-12T15:39:37.339Z,101157.59
2022-08-12T15:42:06.939Z,101171.59
2022-08-12T15:44:42.022Z,101165.47
2022-08-12T15:47:11.610Z,101165.47
2022-08-12T15:49:55.072Z,101162.50
2022-08-12T15:52:30.364Z,101162.34
2022-08-12T15:55:05.957Z,101172.78
2022-08-12T15:57:50.401Z,101164.03
2022-08-12T16:00:31.747Z,101169.06
2022-08-12T16:03:05.326Z,101165.53
2022-08-12T16:06:12.449Z,101163.78
2022-08-12T16:08:27.401Z,101162.63
2022-08-12T16:10:56.447Z,101172.94
2022-08-12T16:13:34.393Z,101165.22
2022-08-12T16:16:22.873Z,101167.75
2022-08-12T16:19:18.813Z,101164.28
2022-08-12T16:21:58.506Z,101159.81
2022-08-12T16:24:38.646Z,101158.81
2022-08-12T16:27:09.915Z,101152.75
2022-08-12T16:29:53.201Z,101154.53
2022-08-12T16:32:24.605Z,101155.34
2022-08-12T16:35:00.601Z,101143.88
2022-08-12T16:38:25.474Z,101142.09
2022-08-12T16:40:21.931Z,101138.53
2022-08-12T16:42:53.898Z,101149.69
2022-08-12T16:46:05.598Z,101139.31
2022-08-12T16:48:34.200Z,101154.72
2022-08-12T16:51:05.827Z,101144.97
2022-08-12T16:53:44.548Z,101144.66
2022-08-12T16:56:18.179Z,101141.09
2022-08-12T16:58:47.976Z,101143.56
2022-08-12T17:01:19.902Z,101143.38
2022-08-12T17:04:08.277Z,101139.69
2022-08-12T17:06:43.435Z,101130.03
2022-08-12T17:09:17.772Z,101129.81
2022-08-12T17:11:49.353Z,101130.56
2022-08-12T17:14:23.007Z,101129.56
2022-08-12T17:16:55.254Z,101135.47
2022-08-12T17:20:02.630Z,101131.81
2022-08-12T17:22:16.386Z,101130.84
2022-08-12T17:24:50.585Z,101132.47
2022-08-12T17:27:30.867Z,101134.88
2022-08-12T17:30:04.169Z,101127.75
2022-08-12T17:32:37.096Z,101131.19
2022-08-12T17:35:36.986Z,101135.34
2022-08-12T17:38:11.581Z,101119.47
2022-08-12T17:40:41.095Z,101129.78
2022-08-12T17:43:51.990Z,101119.03
2022-08-12T17:46:03.657Z,101127.69
2022-08-12T17:48:38.757Z,101130.13
2022-08-12T17:51:15.963Z,101131.66
2022-08-12T17:54:11.445Z,101133.13
2022-08-12T17:56:37.249Z,101127.75
2022-08-12T17:59:07.624Z,101129.31
2022-08-12T18:01:36.800Z,101129.31
2022-08-12T18:04:22.848Z,101132.63
2022-08-12T18:07:08.234Z,101127.16
2022-08-12T18:09:41.035Z,101131.34
2022-08-12T18:12:35.820Z,101133.72
2022-08-12T18:15:10.319Z,101129.94
2022-08-12T18:18:00.003Z,101146.00
2022-08-12T18:20:33.954Z,101147.47
2022-08-12T18:23:06.161Z,101151.59
2022-08-12T18:26:14.668Z,101140.13
2022-08-12T18:28:43.188Z,101151.97
2022-08-12T18:31:15.867Z,101148.34
2022-08-12T18:33:46.199Z,101151.59
2022-08-12T18:36:25.412Z,101155.78
2022-08-12T18:38:56.243Z,101154.72
2022-08-12T18:41:35.124Z,101148.41
2022-08-12T18:44:09.391Z,101139.47
2022-08-12T18:46:55.416Z,101149.59
2022-08-12T18:49:31.890Z,101150.16
2022-08-12T18:52:11.613Z,101138.34
2022-08-12T18:54:48.970Z,101150.56
2022-08-12T18:58:07.654Z,101161.53
2022-08-12T19:00:21.221Z,101157.19
2022-08-12T19:02:51.037Z,101167.41
2022-08-12T19:05:53.367Z,101165.31
2022-08-12T19:08:26.444Z,101160.50
2022-08-12T19:10:55.782Z,101159.31
2022-08-12T19:13:43.582Z,101178.84
2022-08-12T19:16:12.540Z,101170.69
2022-08-12T19:18:44.490Z,101177.34
2022-08-12T19:21:20.438Z,101175.34
2022-08-12T19:24:12.949Z,101178.50
2022-08-12T19:26:42.447Z,101172.19
2022-08-12T19:29:11.574Z,101182.25
2022-08-12T19:31:57.242Z,101185.59
2022-08-12T19:38:04.173Z,101191.91
2022-08-12T19:40:32.361Z,101188.31
2022-08-12T19:43:17.816Z,101187.38
2022-08-12T19:45:51.315Z,101197.38
2022-08-12T19:48:23.209Z,101192.81
2022-08-12T19:50:53.765Z,101178.47
2022-08-12T19:53:23.863Z,101183.47
2022-08-12T19:55:57.851Z,101197.13
2022-08-12T19:58:27.565Z,101188.97
2022-08-12T20:00:56.297Z,101195.47
2022-08-12T20:03:38.348Z,101197.84
2022-08-12T20:06:13.727Z,101187.13
2022-08-12T20:08:48.603Z,101193.88
2022-08-12T20:12:14.504Z,101185.56
2022-08-12T20:14:19.219Z,101194.16
2022-08-12T20:16:54.174Z,101189.69
2022-08-12T20:19:52.413Z,101196.22
2022-08-12T20:22:24.955Z,101195.19
2022-08-12T20:25:09.094Z,101197.66
2022-08-12T20:28:05.290Z,101199.19
2022-08-12T20:30:37.183Z,101185.66
2022-08-12T20:33:23.269Z,101206.56
2022-08-12T20:36:40.267Z,101202.84
2022-08-12T20:39:01.000Z,101205.28
2022-08-12T20:41:31.351Z,101205.00
2022-08-12T20:44:05.941Z,101210.00
2022-08-12T20:46:46.299Z,101207.25
2022-08-12T20:49:17.747Z,101197.25
2022-08-12T20:51:56.112Z,101213.66
2022-08-12T20:54:32.803Z,101210.06
2022-08-12T20:57:10.275Z,101210.94
2022-08-12T20:59:47.939Z,101207.16
2022-08-12T21:02:24.087Z,101216.31
2022-08-12T21:05:20.352Z,101216.84
2022-08-12T21:07:52.098Z,101220.00
2022-08-12T21:10:21.362Z,101218.91
2022-08-12T21:12:57.188Z,101221.28
2022-08-12T21:15:54.553Z,101209.97
2022-08-12T21:18:35.664Z,101219.94
2022-08-12T21:21:04.550Z,101218.88
2022-08-12T21:23:36.985Z,101222.19
2022-08-12T21:26:11.226Z,101214.16
2022-08-12T21:28:41.487Z,101194.47
2022-08-12T21:32:36.385Z,101224.03
2022-08-12T21:34:07.117Z,101228.94
2022-08-12T21:36:39.899Z,101222.84
2022-08-12T21:39:20.512Z,101228.78
2022-08-12T21:41:56.993Z,101230.38
2022-08-12T21:45:45.601Z,101226.63
2022-08-12T21:47:20.150Z,101222.00
2022-08-12T21:50:02.445Z,101223.63
2022-08-12T21:52:36.509Z,101231.31
2022-08-12T21:55:08.366Z,101222.66
2022-08-12T21:57:53.069Z,101195.75
2022-08-12T22:04:03.113Z,101217.75
2022-08-12T22:06:30.519Z,101226.88
2022-08-12T22:09:04.167Z,101227.59
2022-08-12T22:11:42.334Z,101230.88
2022-08-12T22:14:21.627Z,101232.63
2022-08-12T22:16:53.701Z,101234.00
2022-08-12T22:19:26.921Z,101233.03
2022-08-12T22:21:56.458Z,101229.50
2022-08-12T22:24:30.431Z,101232.00
2022-08-12T22:27:18.109Z,101230.06
2022-08-12T22:30:06.101Z,101232.97
2022-08-12T22:32:36.486Z,101225.84
2022-08-12T22:35:28.980Z,101229.91
2022-08-12T22:38:11.004Z,101233.31
2022-08-12T22:40:39.706Z,101231.44
2022-08-12T22:43:29.327Z,101236.50
2022-08-12T22:46:14.580Z,101224.34
2022-08-12T22:48:50.355Z,101208.16
2022-08-12T22:51:24.097Z,101220.72
2022-08-12T22:53:54.380Z,101229.03
2022-08-12T22:56:30.956Z,101222.84
2022-08-12T22:59:02.848Z,101215.44
2022-08-12T23:01:52.513Z,101215.44
2022-08-12T23:04:34.655Z,101216.69
2022-08-12T23:07:07.154Z,101219.78
2022-08-12T23:09:47.937Z,101228.75
2022-08-12T23:12:47.078Z,101221.38
2022-08-12T23:15:16.157Z,101226.50
2022-08-12T23:17:45.910Z,101216.34
2022-08-12T23:20:15.119Z,101226.59
2022-08-12T23:22:55.891Z,101205.41
2022-08-12T23:25:32.640Z,101225.19
2022-08-12T23:31:13.023Z,101225.19
2022-08-12T23:34:00.574Z,101205.50
2022-08-12T23:36:39.651Z,101227.25
2022-08-12T23:40:06.764Z,101218.69
2022-08-12T23:42:18.198Z,101228.69
2022-08-12T23:44:48.569Z,101220.72
2022-08-12T23:47:22.841Z,101219.72
2022-08-12T23:50:07.096Z,101224.09
2022-08-12T23:52:47.252Z,101218.75
2022-08-12T23:55:23.688Z,101218.66
2022-08-12T23:58:21.190Z,101204.34
